Time;durP1;ratioP1;P1;durP2;ratioP2;P2;SDS_P1;SDS_P2;PMS_P1;PMS_P2;Temp;Humidity;BMP_temperature;BMP_pressure;BME280_temperature;BME280_humidity;BME280_pressure;Samples;Min_cycle;Max_cycle;Signal;HPM_P1;HPM_P2
2023/10/20 00:00:42;;;;;;;49.47;29.23;;;;;;;-141.97;82.99;47742.03;5053041;28;20252;-82
2023/10/20 00:03:08;;;;;;;52.43;29.13;;;;;;;-141.97;82.67;47734.34;5054604;28;20169;-81
2023/10/20 00:05:34;;;;;;;55.33;30.53;;;;;;;-141.97;83.16;47795.88;5053972;28;20271;-82
2023/10/20 00:08:00;;;;;;;60.67;31.97;;;;;;;-141.97;83.71;47745.88;5043946;28;20182;-82
2023/10/20 00:10:26;;;;;;;67.77;33.70;;;;;;;-141.97;83.92;47759.34;5034482;28;20170;-83
2023/10/20 00:12:52;;;;;;;104.50;42.63;;;;;;;-141.97;83.76;47901.59;5034988;28;20248;-82
2023/10/20 00:15:17;;;;;;;146.07;48.00;;;;;;;-141.97;83.64;47742.03;5034289;28;20270;-81
2023/10/20 00:21:04;;;;;;;134.10;42.53;;;;;;;-141.97;83.25;47722.81;5034708;28;20234;-80
2023/10/20 00:23:30;;;;;;;108.07;42.23;;;;;;;-141.97;83.77;47742.03;5034752;28;20686;-83
2023/10/20 00:25:55;;;;;;;93.40;40.70;;;;;;;-141.97;84.06;47834.31;5047833;28;20197;-80
2023/10/20 00:28:21;;;;;;;67.93;32.97;;;;;;;-141.97;83.97;47726.66;5053373;28;20331;-80
2023/10/20 00:30:46;;;;;;;63.03;31.67;;;;;;;-141.97;84.53;47730.50;5053520;28;20241;-81
2023/10/20 00:33:11;;;;;;;59.27;31.63;;;;;;;-141.97;84.44;47742.03;5053591;28;20165;-81
2023/10/20 00:35:38;;;;;;;59.83;31.17;;;;;;;-141.97;84.80;47734.34;5053700;28;20211;-81
2023/10/20 00:38:04;;;;;;;53.97;30.13;;;;;;;-141.97;85.24;47736.28;5054156;28;20173;-82
2023/10/20 00:40:30;;;;;;;52.50;28.43;;;;;;;-141.97;86.28;47751.66;5053282;28;20173;-82
2023/10/20 00:42:55;;;;;;;54.37;28.23;;;;;;;-141.97;86.32;47765.09;5052858;28;20247;-82
2023/10/20 00:45:21;;;;;;;52.10;28.60;;;;;;;-141.97;85.77;47730.50;5053208;28;20656;-82
2023/10/20 00:47:47;;;;;;;55.53;27.57;;;;;;;-141.97;86.11;47745.88;5053531;28;20180;-82
2023/10/20 00:50:14;;;;;;;52.63;27.87;;;;;;;-141.97;87.93;47722.81;5044069;28;20237;-82
2023/10/20 00:52:44;;;;;;;49.97;28.00;;;;;;;-141.97;87.77;47757.41;5051946;28;20188;-82
2023/10/20 00:55:11;;;;;;;48.60;26.17;;;;;;;-141.97;87.80;47749.72;5043749;28;20563;-82
2023/10/20 00:57:38;;;;;;;50.20;25.50;;;;;;;-141.97;87.25;47718.97;5033720;28;20167;-81
2023/10/20 01:00:04;;;;;;;46.77;26.10;;;;;;;-141.97;86.81;47732.44;5033525;28;20166;-82
2023/10/20 01:02:30;;;;;;;44.57;25.13;;;;;;;-141.97;87.11;47761.25;5033502;28;20260;-82
2023/10/20 01:04:57;;;;;;;47.43;25.47;;;;;;;-141.97;87.36;47715.13;5033291;28;20259;-83
2023/10/20 01:07:24;;;;;;;47.60;24.90;;;;;;;-141.97;87.31;47745.88;5038692;28;20219;-82
2023/10/20 01:09:50;;;;;;;42.70;24.30;;;;;;;-141.97;87.21;47699.75;5053325;28;20208;-84
2023/10/20 01:12:15;;;;;;;44.73;24.60;;;;;;;-141.97;87.38;47699.75;5053435;28;20201;-82
2023/10/20 01:14:40;;;;;;;47.03;25.47;;;;;;;-141.97;88.22;47772.78;5053075;28;20219;-82
2023/10/20 01:17:07;;;;;;;47.40;24.73;;;;;;;-141.97;88.08;47759.34;5053343;28;20227;-82
2023/10/20 01:19:32;;;;;;;43.47;24.40;;;;;;;-141.97;88.77;47738.19;5053026;28;20160;-81
2023/10/20 01:21:59;;;;;;;43.30;24.47;;;;;;;-141.97;90.54;47790.09;5051810;28;20260;-82
2023/10/20 01:24:25;;;;;;;44.17;24.87;;;;;;;-141.97;91.27;47757.41;5051459;28;20189;-81
2023/10/20 01:26:50;;;;;;;44.90;25.70;;;;;;;-141.97;91.11;47588.28;5053230;28;20158;-82
2023/10/20 01:29:15;;;;;;;47.43;26.20;;;;;;;-141.97;90.80;47630.56;5052549;28;20229;-83
2023/10/20 01:31:41;;;;;;;49.30;25.23;;;;;;;-141.97;90.24;47669.00;5052801;28;20640;-83
2023/10/20 01:34:06;;;;;;;47.37;25.80;;;;;;;-141.97;89.48;47690.16;5053450;28;20241;-83
2023/10/20 01:36:31;;;;;;;45.43;25.13;;;;;;;-141.97;88.52;47899.66;5035000;28;20537;-82
2023/10/20 01:38:57;;;;;;;52.50;24.23;;;;;;;-141.97;86.46;47726.66;5032432;28;20177;-82
2023/10/20 01:41:23;;;;;;;43.47;23.77;;;;;;;-141.97;85.92;47699.75;5042829;28;20182;-83
2023/10/20 01:43:48;;;;;;;47.23;25.13;;;;;;;-141.97;85.96;47669.00;5057527;28;20166;-83
2023/10/20 01:46:14;;;;;;;45.63;24.63;;;;;;;-141.97;85.85;47747.81;5033231;28;20192;-83
2023/10/20 01:48:39;;;;;;;47.43;25.23;;;;;;;-141.97;87.12;47778.56;5033173;28;20229;-83
2023/10/20 01:51:05;;;;;;;49.03;26.57;;;;;;;-141.97;87.34;47680.53;5022765;28;20708;-83
2023/10/20 01:53:30;;;;;;;55.50;27.40;;;;;;;-141.97;87.95;47730.50;5044276;28;20645;-83
2023/10/20 01:55:55;;;;;;;62.33;30.40;;;;;;;-141.97;87.44;47755.50;5052314;28;20197;-83
2023/10/20 01:58:21;;;;;;;63.70;30.60;;;;;;;-141.97;87.34;47711.28;5052612;28;20249;-83
2023/10/20 02:00:50;;;;;;;67.77;30.67;;;;;;;-141.97;87.52;47876.59;5053741;28;20219;-83
2023/10/20 02:03:16;;;;;;;57.30;28.97;;;;;;;-141.97;87.72;47761.25;5052232;28;20166;-83
2023/10/20 02:05:41;;;;;;;63.10;30.80;;;;;;;-141.97;88.22;47870.81;5050523;28;20189;-83
2023/10/20 02:08:10;;;;;;;48.77;26.57;;;;;;;-141.97;88.69;47699.75;5051073;28;20161;-83
2023/10/20 02:10:36;;;;;;;50.80;26.03;;;;;;;-141.97;89.65;47738.19;5051630;28;20161;-83
2023/10/20 02:13:03;;;;;;;52.60;27.33;;;;;;;-141.97;91.00;47772.78;5057480;28;20188;-81
2023/10/20 02:15:29;;;;;;;51.30;26.83;;;;;;;-141.97;93.75;47872.75;5054084;28;20572;-81
2023/10/20 02:17:55;;;;;;;51.17;26.30;;;;;;;-141.97;98.78;47768.94;5052462;28;20168;-81
2023/10/20 02:20:23;;;;;;;52.77;26.27;;;;;;;-141.97;100.00;47647.84;5052167;28;20563;-81
2023/10/20 02:22:50;;;;;;;47.67;25.60;;;;;;;-141.97;100.00;47707.44;5050966;28;20169;-82
2023/10/20 02:25:16;;;;;;;46.63;26.33;;;;;;;-141.97;100.00;47636.31;5063535;28;20194;-83
2023/10/20 02:27:42;;;;;;;47.87;25.73;;;;;;;-141.97;100.00;47803.56;5038187;28;20213;-82
2023/10/20 02:30:12;;;;;;;48.77;27.10;;;;;;;-141.97;100.00;47822.78;5031806;28;20223;-82
2023/10/20 02:32:38;;;;;;;47.70;26.10;;;;;;;-141.97;100.00;47843.91;5034972;28;20200;-82
2023/10/20 02:35:04;;;;;;;54.77;27.30;;;;;;;-141.97;100.00;47745.88;5047818;28;20634;-82
2023/10/20 02:37:30;;;;;;;49.43;26.93;;;;;;;-141.97;100.00;47686.31;5032049;28;20186;-82
2023/10/20 02:39:55;;;;;;;49.70;25.93;;;;;;;-141.97;100.00;47753.56;5035652;28;20184;-82
2023/10/20 02:42:20;;;;;;;52.23;26.40;;;;;;;-141.97;100.00;47767.03;5052467;28;20181;-82
2023/10/20 02:44:46;;;;;;;49.07;27.03;;;;;;;-141.97;100.00;47715.13;5049140;28;20185;-82
2023/10/20 02:47:11;;;;;;;50.70;26.57;;;;;;;-141.97;100.00;47707.44;5030860;28;20268;-82
2023/10/20 02:49:37;;;;;;;50.70;26.70;;;;;;;-141.97;100.00;47795.88;5034934;28;20164;-82
2023/10/20 02:52:02;;;;;;;49.90;26.83;;;;;;;-141.97;100.00;47817.00;5032449;28;20225;-82
2023/10/20 02:54:27;;;;;;;49.83;27.17;;;;;;;-141.97;100.00;47799.72;5032923;28;20429;-83
2023/10/20 02:56:56;;;;;;;49.43;27.07;;;;;;;-141.97;100.00;47738.19;5033977;28;20632;-84
2023/10/20 02:59:21;;;;;;;50.07;26.90;;;;;;;-141.97;100.00;47684.38;5033606;28;20162;-84
2023/10/20 03:01:47;;;;;;;50.40;27.70;;;;;;;-141.97;100.00;47761.25;5048983;28;20192;-81
2023/10/20 03:04:12;;;;;;;51.60;26.77;;;;;;;-141.97;100.00;47692.06;5053121;28;20189;-82
2023/10/20 03:06:37;;;;;;;49.17;26.63;;;;;;;-141.97;100.00;47695.91;5052808;28;20180;-81
2023/10/20 03:09:03;;;;;;;49.97;27.40;;;;;;;-141.97;100.00;47680.53;5052349;28;20177;-82
2023/10/20 03:11:29;;;;;;;50.87;27.50;;;;;;;-141.97;100.00;47751.66;5054788;28;20172;-82
2023/10/20 03:13:54;;;;;;;48.03;26.83;;;;;;;-141.97;100.00;47718.97;5052058;28;20343;-81
2023/10/20 03:16:20;;;;;;;48.50;26.83;;;;;;;-141.97;100.00;47647.84;5052783;28;20196;-81
2023/10/20 03:18:45;;;;;;;49.30;27.50;;;;;;;-141.97;100.00;47649.78;5061764;28;20529;-82
2023/10/20 03:21:11;;;;;;;60.33;33.77;;;;;;;-141.97;100.00;47726.66;5074307;28;20170;-81
2023/10/20 03:23:36;;;;;;;51.40;28.43;;;;;;;-141.97;100.00;47763.19;5066915;28;20207;-80
2023/10/20 03:26:02;;;;;;;58.23;32.07;;;;;;;-141.97;100.00;47740.13;5075656;28;20185;-82
2023/10/20 03:28:28;;;;;;;57.33;29.23;;;;;;;-141.97;100.00;47734.34;5056381;28;20286;-79
2023/10/20 03:30:54;;;;;;;62.77;29.60;;;;;;;-141.97;100.00;47736.28;5054549;28;20214;-80
2023/10/20 03:33:20;;;;;;;56.30;28.13;;;;;;;-141.97;100.00;47772.78;5055427;28;20252;-80
2023/10/20 03:35:45;;;;;;;67.67;27.37;;;;;;;-141.97;100.00;47742.03;5054839;28;20257;-80
2023/10/20 03:38:13;;;;;;;60.40;27.13;;;;;;;-141.97;100.00;47751.66;5055834;28;20177;-82
2023/10/20 03:40:44;;;;;;;63.77;28.33;;;;;;;-141.97;100.00;47768.94;5054961;28;20173;-81
2023/10/20 03:43:10;;;;;;;109.87;54.37;;;;;;;-141.97;100.00;47749.72;5053629;28;20172;-82
2023/10/20 03:45:48;;;;;;;91.93;43.10;;;;;;;-141.97;100.00;47717.06;5053992;28;20264;-80
2023/10/20 03:48:14;;;;;;;70.90;39.17;;;;;;;-141.97;100.00;47738.19;5051803;28;20195;-81
2023/10/20 03:50:43;;;;;;;62.13;35.00;;;;;;;-141.97;100.00;47745.88;5046557;28;20236;-82
2023/10/20 03:53:15;;;;;;;58.03;31.87;;;;;;;-141.97;100.00;47811.25;5053896;28;20161;-82
2023/10/20 03:55:40;;;;;;;50.50;27.67;;;;;;;-141.97;100.00;47753.56;5034811;28;20185;-82
2023/10/20 03:58:05;;;;;;;44.77;26.03;;;;;;;-141.97;100.00;47699.75;5036399;28;20173;-80
2023/10/20 04:00:33;;;;;;;49.57;26.90;;;;;;;-141.97;100.00;47715.13;5052085;28;20165;-82
2023/10/20 04:02:59;;;;;;;119.43;57.60;;;;;;;-141.97;100.00;47728.59;5052230;28;20162;-82
2023/10/20 04:05:25;;;;;;;89.70;48.40;;;;;;;-141.97;100.00;47761.25;5052235;28;20191;-84
2023/10/20 04:07:51;;;;;;;278.97;148.37;;;;;;;-141.97;100.00;47761.25;5054792;28;20176;-81
2023/10/20 04:10:20;;;;;;;650.70;317.27;;;;;;;-141.97;100.00;47663.22;5062253;28;20225;-81
2023/10/20 04:12:46;;;;;;;339.27;129.63;;;;;;;-141.97;100.00;47780.47;5074580;28;20189;-80
2023/10/20 04:15:16;;;;;;;267.70;111.00;;;;;;;-141.97;100.00;47707.44;5050784;28;20299;-81
2023/10/20 04:17:51;;;;;;;172.07;81.17;;;;;;;-141.97;100.00;47717.06;5050165;28;20173;-81
2023/10/20 04:20:20;;;;;;;62.53;33.00;;;;;;;-141.97;100.00;47736.28;5053135;28;20169;-81
2023/10/20 04:22:49;;;;;;;977.37;515.20;;;;;;;-141.97;100.00;47705.53;5050534;28;20636;-81
2023/10/20 04:25:16;;;;;;;523.13;278.33;;;;;;;-141.97;100.00;47734.34;5051332;28;20668;-82
2023/10/20 04:27:50;;;;;;;137.60;62.27;;;;;;;-141.97;100.00;47759.34;5046270;28;20640;-82
2023/10/20 05:02:54;;;;;;;59.13;28.63;;;;;;;-141.97;100.00;47782.41;5055119;28;20233;-81
2023/10/20 05:08:16;;;;;;;56.80;28.93;;;;;;;-141.97;100.00;47715.13;5040487;28;20204;-82
2023/10/20 05:10:43;;;;;;;48.57;23.87;;;;;;;-141.97;100.00;47699.75;5046294;28;20186;-83
2023/10/20 05:13:09;;;;;;;40.87;22.33;;;;;;;-141.97;100.00;47778.56;5056445;28;20171;-83
2023/10/20 05:15:43;;;;;;;51.93;24.47;;;;;;;-141.97;100.00;47742.03;5053766;28;20870;-83
2023/10/20 05:18:11;;;;;;;48.83;27.20;;;;;;;-141.97;100.00;47749.72;5054144;28;20169;-83
2023/10/20 05:20:42;;;;;;;53.67;27.27;;;;;;;-141.97;100.00;47761.25;5055022;28;20166;-82
2023/10/20 05:23:10;;;;;;;65.73;32.37;;;;;;;-141.97;100.00;47784.34;5055200;28;20245;-83
2023/10/20 05:25:36;;;;;;;63.63;35.80;;;;;;;-141.97;100.00;47738.19;5050754;28;20197;-83
2023/10/20 05:28:01;;;;;;;65.30;36.83;;;;;;;-141.97;100.00;47743.97;5034722;28;20221;-81
2023/10/20 05:30:27;;;;;;;83.67;45.90;;;;;;;-141.97;100.00;47757.41;5033510;28;20201;-83
2023/10/20 05:32:53;;;;;;;75.67;43.63;;;;;;;-141.97;100.00;47761.25;5051986;28;20193;-81
2023/10/20 05:35:18;;;;;;;62.70;33.83;;;;;;;-141.97;100.00;47743.97;5054752;28;20157;-81
2023/10/20 05:37:44;;;;;;;55.73;26.97;;;;;;;-141.97;100.00;47607.50;5039056;28;20226;-83
2023/10/20 05:40:13;;;;;;;38.73;22.13;;;;;;;-141.97;100.00;47755.50;5035008;28;20202;-82
2023/10/20 05:42:38;;;;;;;43.40;24.70;;;;;;;-141.97;100.00;47832.38;5037581;28;20166;-82
2023/10/20 05:45:10;;;;;;;50.07;28.60;;;;;;;-141.97;100.00;47715.13;5046576;28;20200;-82
2023/10/20 05:47:37;;;;;;;60.90;31.80;;;;;;;-141.97;100.00;47784.34;5055356;28;20181;-82
2023/10/20 05:50:05;;;;;;;72.60;39.13;;;;;;;-141.97;100.00;47734.34;5058264;28;20203;-83
2023/10/20 05:52:30;;;;;;;90.33;48.50;;;;;;;-141.97;100.00;47743.97;5052645;28;20244;-82
2023/10/20 05:54:59;;;;;;;79.13;39.53;;;;;;;-141.97;100.00;47651.69;5070034;28;20221;-84
2023/10/20 05:57:25;;;;;;;67.67;36.57;;;;;;;-141.97;100.00;47626.72;5037240;28;20173;-84
2023/10/20 05:59:51;;;;;;;59.27;31.83;;;;;;;-141.97;100.00;47743.97;5036613;28;20162;-85
2023/10/20 06:02:16;;;;;;;50.67;26.77;;;;;;;-141.97;100.00;47780.47;5040192;28;20158;-87
2023/10/20 06:04:42;;;;;;;42.67;23.53;;;;;;;-141.97;100.00;47811.25;5048010;28;20201;-90
2023/10/20 06:07:07;;;;;;;44.10;21.73;;;;;;;-141.97;100.00;47722.81;5057125;28;20201;-88
2023/10/20 06:09:33;;;;;;;41.47;22.40;;;;;;;-141.97;100.00;47634.41;5055682;28;20162;-89
2023/10/20 06:12:00;;;;;;;40.90;22.67;;;;;;;-141.97;100.00;47632.47;5054390;28;20573;-88
2023/10/20 06:14:26;;;;;;;48.00;24.57;;;;;;;-141.97;100.00;47763.19;5053669;28;20165;-86
2023/10/20 06:16:52;;;;;;;117.10;47.30;;;;;;;-141.97;100.00;47809.31;5041854;28;20182;-86
2023/10/20 06:19:18;;;;;;;55.07;25.93;;;;;;;-141.97;100.00;47692.06;5034391;28;20162;-87
2023/10/20 06:21:43;;;;;;;46.57;23.77;;;;;;;-141.97;100.00;47826.63;5034766;28;20186;-91
2023/10/20 06:24:09;;;;;;;48.10;23.30;;;;;;;-141.97;100.00;47653.63;5033609;28;20244;-90
2023/10/20 06:26:35;;;;;;;40.70;21.97;;;;;;;-141.97;100.00;47753.56;5042839;28;20165;-88
2023/10/20 06:29:01;;;;;;;64.70;35.57;;;;;;;-141.97;100.00;47711.28;5051782;28;20225;-88
2023/10/20 06:34:10;;;;;;;36.33;21.03;;;;;;;-141.97;100.00;47803.56;5055298;28;20169;-88
2023/10/20 06:36:37;;;;;;;47.93;25.83;;;;;;;-141.97;100.00;47722.81;5074482;28;20176;-87
2023/10/20 06:39:03;;;;;;;40.73;23.13;;;;;;;-141.97;100.00;47732.44;5070720;28;20185;-86
2023/10/20 06:41:29;;;;;;;36.63;20.67;;;;;;;-141.97;100.00;47784.34;5062984;28;20168;-90
2023/10/20 06:43:55;;;;;;;37.60;21.10;;;;;;;-141.97;97.88;47838.16;5057159;28;20195;-88
2023/10/20 06:46:22;;;;;;;30.93;18.17;;;;;;;-141.97;94.52;47834.31;5058878;28;20181;-87
2023/10/20 06:48:47;;;;;;;32.97;18.00;;;;;;;-141.97;89.83;47711.28;5052130;28;20157;-87
2023/10/20 06:51:14;;;;;;;33.80;18.87;;;;;;;-141.97;89.11;47763.19;5044763;28;20231;-88
2023/10/20 06:53:39;;;;;;;34.20;18.57;;;;;;;-141.97;89.46;47599.81;5059513;28;20664;-87
2023/10/20 06:56:07;;;;;;;31.93;18.80;;;;;;;-141.97;88.59;47757.41;5061854;28;20172;-88
2023/10/20 06:58:32;;;;;;;31.40;18.83;;;;;;;-141.97;88.02;47638.25;5060225;28;20189;-87
2023/10/20 07:01:03;;;;;;;37.63;19.60;;;;;;;-141.97;89.10;47874.69;5057526;28;20169;-86
2023/10/20 07:03:32;;;;;;;36.07;19.63;;;;;;;-141.97;88.19;47718.97;5053367;28;20618;-90
2023/10/20 07:05:58;;;;;;;31.60;19.50;;;;;;;-141.97;85.85;47682.47;5052785;28;20209;-89
2023/10/20 07:08:24;;;;;;;36.87;20.80;;;;;;;-141.97;82.77;47640.16;5054401;28;20240;-89
2023/10/20 07:10:50;;;;;;;30.87;17.43;;;;;;;-141.97;83.69;47803.56;5053639;28;20231;-90
2023/10/20 07:13:17;;;;;;;31.47;19.17;;;;;;;-141.97;82.50;47669.00;5043277;28;20210;-89
2023/10/20 07:15:43;;;;;;;29.90;17.40;;;;;;;-141.97;80.75;47767.03;5055325;28;20181;-89
2023/10/20 07:18:11;;;;;;;28.45;18.77;;;;;;;-141.97;81.09;47765.09;5052507;28;20430;-88
2023/10/20 07:20:38;;;;;;;27.43;17.40;;;;;;;-141.97;79.55;47718.97;5052593;28;20579;-89
2023/10/20 07:23:05;;;;;;;26.33;15.13;;;;;;;-141.97;79.61;47830.47;5067498;28;20649;-90
2023/10/20 07:25:31;;;;;;;26.17;16.00;;;;;;;-141.97;80.76;47749.72;5067963;28;20194;-89
2023/10/20 07:27:57;;;;;;;23.30;14.63;;;;;;;-141.97;78.74;47599.81;5066546;28;20236;-88
2023/10/20 07:30:23;;;;;;;23.90;14.00;;;;;;;-141.97;79.21;47730.50;5073139;28;20165;-87
2023/10/20 07:32:51;;;;;;;28.53;15.97;;;;;;;-141.97;79.26;47597.88;5054579;28;20665;-88
2023/10/20 07:35:17;;;;;;;27.87;16.70;;;;;;;-141.97;78.85;47776.63;5056255;28;20196;-88
2023/10/20 07:37:43;;;;;;;28.30;16.90;;;;;;;-141.97;76.18;47861.22;5051874;28;20172;-87
2023/10/20 07:40:10;;;;;;;29.37;15.80;;;;;;;-141.97;73.77;47849.69;5051458;28;20246;-88
2023/10/20 07:42:35;;;;;;;23.50;15.17;;;;;;;-141.97;74.13;47757.41;5051108;28;20169;-89
2023/10/20 07:45:01;;;;;;;24.97;15.73;;;;;;;-141.97;71.93;47751.66;5052427;28;20215;-88
2023/10/20 07:47:27;;;;;;;21.27;13.80;;;;;;;-141.97;69.94;47895.81;5052942;28;20223;-90
2023/10/20 07:49:53;;;;;;;27.70;17.50;;;;;;;-141.97;71.30;47605.56;5051402;28;20171;-88
2023/10/20 07:52:19;;;;;;;24.00;15.67;;;;;;;-141.97;69.67;47722.81;5044818;28;20327;-88
2023/10/20 07:54:45;;;;;;;28.43;17.20;;;;;;;-141.97;67.84;47734.34;5052159;28;20562;-89
2023/10/20 07:57:12;;;;;;;27.03;17.50;;;;;;;-141.97;66.88;47726.66;5052414;28;20527;-87
2023/10/20 07:59:38;;;;;;;26.97;15.30;;;;;;;-141.97;67.85;47694.00;5050026;28;20185;-89
2023/10/20 08:02:05;;;;;;;25.80;16.37;;;;;;;-141.97;68.23;47676.69;5051976;28;20168;-85
2023/10/20 08:04:32;;;;;;;27.70;16.93;;;;;;;-141.97;67.96;47699.75;5034930;28;20756;-87
2023/10/20 08:06:59;;;;;;;27.93;17.07;;;;;;;-141.97;65.45;47722.81;5034787;28;20256;-88
2023/10/20 08:09:26;;;;;;;27.77;16.07;;;;;;;-141.97;64.61;47834.31;5036756;28;20165;-88
2023/10/20 08:11:51;;;;;;;29.23;15.50;;;;;;;-141.97;64.73;47853.53;5036598;28;20158;-89
2023/10/20 08:14:17;;;;;;;27.63;16.30;;;;;;;-141.97;64.23;47667.06;5049491;28;20176;-89
2023/10/20 08:16:42;;;;;;;28.80;15.97;;;;;;;-141.97;63.82;47542.16;5056448;28;20169;-88
2023/10/20 08:19:08;;;;;;;27.57;15.97;;;;;;;-141.97;63.19;47595.97;5055921;28;20169;-88
2023/10/20 08:21:33;;;;;;;27.67;16.07;;;;;;;-141.97;62.34;47682.47;5056721;28;20177;-87
2023/10/20 08:23:58;;;;;;;28.97;17.87;;;;;;;-141.97;62.35;47661.31;5045915;28;20174;-87
2023/10/20 08:26:24;;;;;;;27.23;15.53;;;;;;;-141.97;61.02;47649.78;5037534;28;20182;-89
2023/10/20 08:28:50;;;;;;;31.43;17.27;;;;;;;-141.97;61.51;47784.34;5036418;28;20230;-87
2023/10/20 08:31:21;;;;;;;34.17;19.70;;;;;;;-141.97;58.77;47822.78;5035072;28;20638;-88
2023/10/20 08:33:48;;;;;;;26.60;16.10;;;;;;;-141.97;57.65;47599.81;5036908;28;20303;-88
2023/10/20 08:36:15;;;;;;;28.10;16.20;;;;;;;-141.97;57.11;47584.44;5037347;28;20158;-87
2023/10/20 08:38:47;;;;;;;28.33;15.73;;;;;;;-141.97;58.67;47636.31;5036723;28;20611;-89
2023/10/20 08:41:23;;;;;;;25.27;15.70;;;;;;;-141.97;57.23;47549.84;5034482;28;20522;-89
2023/10/20 08:43:52;;;;;;;24.77;15.73;;;;;;;-141.97;56.04;47665.16;5044780;28;20179;-90
2023/10/20 08:46:23;;;;;;;23.37;15.47;;;;;;;-141.97;57.49;47665.16;5058751;28;20657;-86
2023/10/20 08:48:48;;;;;;;21.63;15.40;;;;;;;-141.97;56.43;47811.25;5056238;28;20188;-88
2023/10/20 08:51:16;;;;;;;21.00;14.40;;;;;;;-141.97;55.86;47688.22;5057112;28;20169;-87
2023/10/20 08:53:42;;;;;;;21.97;15.17;;;;;;;-141.97;55.44;47684.38;5038693;28;20234;-87
2023/10/20 08:56:08;;;;;;;20.40;14.57;;;;;;;-141.97;54.86;47619.03;5035478;28;20174;-87
2023/10/20 08:58:35;;;;;;;21.13;14.67;;;;;;;-141.97;54.23;47703.59;5034759;28;20196;-88
2023/10/20 09:01:01;;;;;;;23.60;15.60;;;;;;;-141.97;54.60;47811.25;5037588;28;20614;-87
2023/10/20 09:03:28;;;;;;;22.87;16.50;;;;;;;-141.97;55.71;47845.84;5036882;28;20185;-88
2023/10/20 09:06:05;;;;;;;25.17;16.40;;;;;;;-141.97;53.90;47669.00;5064551;28;20196;-88
2023/10/20 09:08:31;;;;;;;23.47;15.73;;;;;;;-141.97;52.89;47630.56;5071193;28;20177;-88
2023/10/20 09:10:57;;;;;;;24.07;15.60;;;;;;;-141.97;51.68;47792.03;5058495;28;20244;-87
2023/10/20 09:13:30;;;;;;;20.90;14.93;;;;;;;-141.97;51.10;47680.53;5047687;28;20271;-88
2023/10/20 09:15:58;;;;;;;21.50;14.73;;;;;;;-141.97;50.10;47842.00;5033275;28;20170;-88
2023/10/20 09:18:26;;;;;;;21.87;15.27;;;;;;;-141.97;49.46;47655.53;5033693;28;20547;-88
2023/10/20 09:21:06;;;;;;;21.33;14.67;;;;;;;-141.97;48.53;47584.44;5035909;28;20236;-95
2023/10/20 09:23:34;;;;;;;22.50;15.00;;;;;;;-141.97;49.74;47626.72;5037997;28;20204;-87
2023/10/20 09:26:04;;;;;;;21.07;14.40;;;;;;;-141.97;49.69;47592.13;5037970;28;20193;-87
2023/10/20 09:28:29;;;;;;;19.17;14.30;;;;;;;-141.97;49.29;47522.91;5047202;28;20209;-88
2023/10/20 09:30:55;;;;;;;19.40;13.10;;;;;;;-141.97;48.24;47572.91;5056578;28;20175;-89
2023/10/20 09:33:24;;;;;;;19.50;13.27;;;;;;;-141.97;48.90;47603.66;5060432;28;20257;-89
2023/10/20 09:35:53;;;;;;;14.37;12.27;;;;;;;-141.97;48.65;47667.06;5067629;28;20157;-88
2023/10/20 09:38:27;;;;;;;16.13;12.37;;;;;;;-141.97;49.30;47780.47;5062426;28;20173;-86
2023/10/20 09:41:11;;;;;;;19.67;12.30;;;;;;;-141.97;47.82;47747.81;5056339;28;20640;-89
2023/10/20 09:43:48;;;;;;;18.17;12.90;;;;;;;-141.97;46.51;47588.28;5055033;28;20185;-88
2023/10/20 09:46:23;;;;;;;15.93;11.80;;;;;;;-141.97;45.75;47549.84;5055820;28;20197;-89
2023/10/20 09:49:14;;;;;;;20.00;12.90;;;;;;;-141.97;45.53;47626.72;5053930;28;20161;-87
2023/10/20 09:51:47;;;;;;;20.30;13.90;;;;;;;-141.97;45.01;47511.38;5061257;28;20176;-89
2023/10/20 09:54:16;;;;;;;17.47;13.20;;;;;;;-141.97;45.33;47830.47;5058664;28;20294;-87
2023/10/20 09:56:44;;;;;;;17.17;12.57;;;;;;;-141.97;47.04;47792.03;5055978;28;20153;-87
2023/10/20 09:59:20;;;;;;;19.23;14.00;;;;;;;-141.97;47.95;47549.84;5051490;28;20636;-87
2023/10/20 10:01:48;;;;;;;19.07;13.40;;;;;;;-141.97;47.69;47818.94;5055606;28;20637;-87
2023/10/20 10:04:14;;;;;;;20.40;12.77;;;;;;;-141.97;46.49;47561.38;5051776;28;20504;-87
2023/10/20 10:06:51;;;;;;;15.63;12.60;;;;;;;-141.97;46.53;47655.53;5050887;28;20180;-86
2023/10/20 10:09:18;;;;;;;19.87;13.93;;;;;;;-141.97;46.36;47599.81;5059952;28;20196;-88
2023/10/20 10:11:44;;;;;;;22.57;14.37;;;;;;;-141.97;47.05;47630.56;5056636;28;20196;-87
2023/10/20 10:14:21;;;;;;;19.33;13.83;;;;;;;-141.97;46.72;47530.59;5041664;28;20209;-88
2023/10/20 10:16:56;;;;;;;18.13;13.73;;;;;;;-141.97;46.26;47630.56;5033715;28;20170;-87
2023/10/20 10:19:26;;;;;;;18.00;12.93;;;;;;;-141.97;45.66;47607.50;5033960;28;20207;-87
2023/10/20 10:22:01;;;;;;;19.20;13.77;;;;;;;-141.97;45.40;47526.75;5032432;28;20170;-88
2023/10/20 10:24:31;;;;;;;20.57;15.00;;;;;;;-141.97;44.80;47757.41;5032658;28;20676;-86
2023/10/20 10:27:05;;;;;;;17.60;13.80;;;;;;;-141.97;44.72;47607.50;5033268;28;20154;-83
2023/10/20 10:29:49;;;;;;;19.30;14.90;;;;;;;-141.97;44.22;47628.63;5030469;28;20182;-86
2023/10/20 10:32:17;;;;;;;21.73;14.20;;;;;;;-141.97;44.34;47613.25;5030591;28;20285;-85
2023/10/20 10:34:48;;;;;;;19.87;13.90;;;;;;;-141.97;44.42;47555.59;5030334;28;20176;-88
2023/10/20 10:37:18;;;;;;;27.00;13.97;;;;;;;-141.97;44.18;47595.97;5053796;28;20251;-87
2023/10/20 10:39:44;;;;;;;20.17;14.10;;;;;;;-141.97;43.97;47638.25;5072053;28;20270;-86
2023/10/20 10:42:11;;;;;;;25.33;14.20;;;;;;;-141.97;43.73;47434.50;5080972;28;20173;-88
2023/10/20 10:44:39;;;;;;;17.63;13.67;;;;;;;-141.97;43.55;47442.19;5060040;28;20203;-88
2023/10/20 10:47:06;;;;;;;22.40;13.73;;;;;;;-141.97;43.93;47457.56;5056668;28;20161;-89
2023/10/20 10:49:32;;;;;;;19.97;13.90;;;;;;;-141.97;43.32;47611.34;5065447;28;20235;-88
2023/10/20 10:52:09;;;;;;;18.63;13.83;;;;;;;-141.97;43.84;47592.13;5067158;28;20165;-87
2023/10/20 10:54:35;;;;;;;22.40;14.87;;;;;;;-141.97;43.55;47601.72;5056801;28;20655;-87
2023/10/20 10:57:03;;;;;;;15.83;13.10;;;;;;;-141.97;44.07;47534.44;5059365;28;20638;-87
2023/10/20 10:59:30;;;;;;;18.20;13.60;;;;;;;-141.97;43.97;47480.63;5054004;28;20173;-90
2023/10/20 11:01:56;;;;;;;19.40;13.63;;;;;;;-141.97;43.47;47722.81;5054339;28;20153;-86
2023/10/20 11:04:22;;;;;;;16.88;12.90;;;;;;;-141.97;43.41;47459.50;5041330;28;20194;-87
2023/10/20 11:06:48;;;;;;;21.57;14.10;;;;;;;-141.97;43.85;47484.47;5044784;28;20169;-87
2023/10/20 11:09:19;;;;;;;17.30;13.40;;;;;;;-141.97;44.15;47469.09;5050113;28;20627;-88
2023/10/20 11:11:47;;;;;;;22.77;14.00;;;;;;;-141.97;43.21;47542.16;5053567;28;20173;-88
2023/10/20 11:14:23;;;;;;;18.33;12.52;;;;;;;-141.97;42.97;47515.22;5041918;28;20184;-88
2023/10/20 11:16:49;;;;;;;17.73;12.00;;;;;;;-141.97;42.68;47563.28;5029825;28;20254;-89
2023/10/20 11:19:17;;;;;;;15.68;11.70;;;;;;;-141.97;42.71;47565.22;5031993;28;20248;-90
2023/10/20 11:21:47;;;;;;;16.80;11.35;;;;;;;-141.97;42.32;47465.25;5049550;28;20628;-87
2023/10/20 11:24:26;;;;;;;15.35;11.57;;;;;;;-141.97;42.16;47605.56;5044210;28;20215;-88
2023/10/20 11:26:59;;;;;;;16.70;11.90;;;;;;;-141.97;42.44;47594.03;5036625;28;20178;-87
2023/10/20 11:29:26;;;;;;;17.50;12.10;;;;;;;-141.97;42.35;47559.44;5056234;28;20231;-87
2023/10/20 11:31:52;;;;;;;24.33;12.30;;;;;;;-141.97;42.52;47680.53;5049639;28;20176;-86
2023/10/20 11:34:17;;;;;;;18.83;11.38;;;;;;;-141.97;42.02;47555.59;5034250;28;20203;-87
2023/10/20 11:36:43;;;;;;;16.55;11.13;;;;;;;-141.97;42.42;47597.88;5034383;28;20637;-86
2023/10/20 11:39:08;;;;;;;18.05;11.30;;;;;;;-141.97;42.24;47480.63;5039749;28;20611;-86
2023/10/20 11:41:34;;;;;;;16.58;11.48;;;;;;;-141.97;42.67;47553.69;5055611;28;20165;-86